Terminal Aerodrome Forecast
Issued by NWS Pueblo, CO

Home | Current Version | Previous Version | Text Only | Print | Product List | Glossary On
Versions: 1 2 3 4 5 6 7 8 9 10 11 12 13 14 15 16 17 18 19 20 21 22 23 24
068
FTUS45 KPUB 151120
TAFCOS
TAF
KCOS 151120Z 1512/1612 01006KT P6SM FEW150 BKN250
     FM151500 15008KT P6SM BKN200
     FM152000 15013KT P6SM SCT120 BKN200
     FM160200 25011KT P6SM BKN100
     FM160500 04008KT P6SM BKN100
     FM161100 35007KT P6SM FEW100=

USA.gov is the U.S. government's official web portal to all federal, state and local government web resources and services.